地図

経路データ

SID SEASON NUMBER BASIN SUBBASIN NAME ISO_TIME NATURE LAT LON WMO_WIND WMO_PRES WMO_AGENCY TRACK_TYPE DIST2LAND LANDFALL IFLAG USA_AGENCY USA_ATCF_ID USA_LAT USA_LON USA_RECORD USA_STATUS USA_WIND USA_PRES USA_SSHS USA_R34_NE USA_R34_SE USA_R34_SW USA_R34_NW USA_R50_NE USA_R50_SE USA_R50_SW USA_R50_NW USA_R64_NE USA_R64_SE USA_R64_SW USA_R64_NW USA_POCI USA_ROCI USA_RMW USA_EYE TOKYO_LAT TOKYO_LON TOKYO_GRADE TOKYO_WIND TOKYO_PRES TOKYO_R50_DIR TOKYO_R50_LONG TOKYO_R50_SHORT TOKYO_R30_DIR TOKYO_R30_LONG TOKYO_R30_SHORT TOKYO_LAND CMA_LAT CMA_LON CMA_CAT CMA_WIND CMA_PRES HKO_LAT HKO_LON HKO_CAT HKO_WIND HKO_PRES NEWDELHI_LAT NEWDELHI_LON NEWDELHI_GRADE NEWDELHI_WIND NEWDELHI_PRES NEWDELHI_CI NEWDELHI_DP NEWDELHI_POCI REUNION_LAT REUNION_LON REUNION_TYPE REUNION_WIND REUNION_PRES REUNION_TNUM REUNION_CI REUNION_RMW REUNION_R34_NE REUNION_R34_SE REUNION_R34_SW REUNION_R34_NW REUNION_R50_NE REUNION_R50_SE REUNION_R50_SW REUNION_R50_NW REUNION_R64_NE REUNION_R64_SE REUNION_R64_SW REUNION_R64_NW BOM_LAT BOM_LON BOM_TYPE BOM_WIND BOM_PRES BOM_TNUM BOM_CI BOM_RMW BOM_R34_NE BOM_R34_SE BOM_R34_SW BOM_R34_NW BOM_R50_NE BOM_R50_SE BOM_R50_SW BOM_R50_NW BOM_R64_NE BOM_R64_SE BOM_R64_SW BOM_R64_NW BOM_ROCI BOM_POCI BOM_EYE BOM_POS_METHOD BOM_PRES_METHOD NADI_LAT NADI_LON NADI_CAT NADI_WIND NADI_PRES WELLINGTON_LAT WELLINGTON_LON WELLINGTON_WIND WELLINGTON_PRES DS824_LAT DS824_LON DS824_STAGE DS824_WIND DS824_PRES TD9636_LAT TD9636_LON TD9636_STAGE TD9636_WIND TD9636_PRES TD9635_LAT TD9635_LON TD9635_WIND TD9635_PRES TD9635_ROCI NEUMANN_LAT NEUMANN_LON NEUMANN_CLASS NEUMANN_WIND NEUMANN_PRES MLC_LAT MLC_LON MLC_CLASS MLC_WIND MLC_PRES USA_GUST BOM_GUST BOM_GUST_PER REUNION_GUST REUNION_GUST_PER USA_SEAHGT USA_SEARAD_NE USA_SEARAD_SE USA_SEARAD_SW USA_SEARAD_NW STORM_SPEED STORM_DIR
1978230N12239 1978 70 EP MM JOHN 1978-08-18 00:00:00 TS 12.2000 -121.000 30 hurdat_epa main 1669 1669 O________OO___ hurdat_epa EP101978 12.2000 -121.000 TD 30 -1 12.2000 -121.000 TC 30 12.2000 -121.000 1 30 7 278
1978230N12239 1978 70 EP MM JOHN 1978-08-18 03:00:00 TS 12.2516 -121.352 main 1691 1691 P________PP___ EP101978 12.2476 -121.355 TD 30 -1 12.2476 -121.355 TC 30 12.2674 -121.340 1 30 7 279
1978230N12239 1978 70 EP MM JOHN 1978-08-18 06:00:00 TS 12.3055 -121.697 30 hurdat_epa main 1714 1714 O________OP___ hurdat_epa EP101978 12.3000 -121.700 TD 30 -1 12.3000 -121.700 TC 30 12.3277 -121.685 1 30 7 279
1978230N12239 1978 70 EP MM JOHN 1978-08-18 09:00:00 TS 12.3607 -122.035 main 1725 1725 P________PP___ EP101978 12.3574 -122.035 TD 30 -1 12.3574 -122.035 TC 30 12.3741 -122.037 1 30 7 278
1978230N12239 1978 70 EP MM JOHN 1978-08-18 12:00:00 TS 12.4000 -122.400 30 hurdat_epa main 1751 1751 O________OO___ hurdat_epa EP101978 12.4000 -122.400 TD 30 -1 12.4000 -122.400 TC 30 12.4000 -122.400 1 30 8 274
1978230N12239 1978 70 EP MM JOHN 1978-08-18 15:00:00 TS 12.4122 -122.847 main 1777 1777 P________PP___ EP101978 12.4151 -122.865 TD 30 -1 12.4151 -122.865 TC 30 12.4007 -122.774 1 31 8 270
1978230N12239 1978 70 EP MM JOHN 1978-08-18 18:00:00 TS 12.3960 -123.269 30 hurdat_epa main 1811 1811 O________OP___ hurdat_epa EP101978 12.4000 -123.300 TD 30 -1 12.4000 -123.300 TC 30 12.3801 -123.145 1 32 7 265
1978230N12239 1978 70 EP MM JOHN 1978-08-18 21:00:00 TS 12.3548 -123.563 main 1831 1831 P________PP___ EP101978 12.3574 -123.580 TD 32 -1 12.3574 -123.580 TC 32 12.3445 -123.493 1 33 5 260
1978230N12239 1978 70 EP MM JOHN 1978-08-19 00:00:00 TS 12.3000 -123.800 35 hurdat_epa main 1854 1854 O________OO___ hurdat_epa EP101978 12.3000 -123.800 TS 35 0 12.3000 -123.800 TC 35 12.3000 -123.800 2 35 5 258
1978230N12239 1978 70 EP MM JOHN 1978-08-19 03:00:00 TS 12.2490 -124.059 main 1883 1883 P________PP___ EP101978 12.2500 -124.065 TS 35 0 12.2500 -124.065 TC 35 12.2447 -124.035 2 35 5 258
1978230N12239 1978 70 EP MM JOHN 1978-08-19 06:00:00 TS 12.1969 -124.286 35 hurdat_epa main 1897 1897 O________OP___ hurdat_epa EP101978 12.2000 -124.300 TS 35 0 12.2000 -124.300 TC 35 12.1846 -124.230 2 35 4 255
1978230N12239 1978 70 EP MM JOHN 1978-08-19 09:00:00 TS 12.1464 -124.448 main 1913 1913 P________PP___ EP101978 12.1499 -124.457 TS 35 0 12.1499 -124.457 TC 35 12.1323 -124.410 2 35 3 252
1978230N12239 1978 70 EP MM JOHN 1978-08-19 12:00:00 TS 12.1000 -124.600 35 hurdat_epa main 1927 1927 O________OO___ hurdat_epa EP101978 12.1000 -124.600 TS 35 0 12.1000 -124.600 TC 35 12.1000 -124.600 2 35 3 252
1978230N12239 1978 70 EP MM JOHN 1978-08-19 15:00:00 TS 12.0386 -124.788 main 1950 1950 P________PP___ EP101978 12.0275 -124.778 TS 37 0 12.0275 -124.778 TC 37 12.0831 -124.828 2 40 4 259
1978230N12239 1978 70 EP MM JOHN 1978-08-19 18:00:00 TS 12.0180 -125.014 40 hurdat_epa main 1965 1965 O________OP___ hurdat_epa EP101978 12.0000 -125.000 TS 40 0 12.0000 -125.000 TC 40 12.0899 -125.070 2 45 5 276
1978230N12239 1978 70 EP MM JOHN 1978-08-19 21:00:00 TS 12.0874 -125.299 main 1978 1978 P________PP___ EP101978 12.0775 -125.292 TS 47 0 12.0775 -125.292 TC 47 12.1268 -125.328 2 50 6 288
1978230N12239 1978 70 EP MM JOHN 1978-08-20 00:00:00 TS 12.2000 -125.600 55 hurdat_epa main 1992 1992 O________OO___ hurdat_epa EP101978 12.2000 -125.600 TS 55 0 12.2000 -125.600 TC 55 12.2000 -125.600 2 55 6 290
1978230N12239 1978 70 EP MM JOHN 1978-08-20 03:00:00 TS 12.2883 -125.850 main 1999 1999 P________PP___ EP101978 12.2849 -125.843 TS 57 0 12.2849 -125.843 TC 57 12.3018 -125.878 2 56 5 292
1978230N12239 1978 70 EP MM JOHN 1978-08-20 06:00:00 TS 12.4080 -126.114 60 hurdat_epa main 2014 2014 O________OP___ hurdat_epa EP101978 12.4000 -126.100 TS 60 0 12.4000 -126.100 TC 60 12.4399 -126.170 2 57 7 296
1978230N12239 1978 70 EP MM JOHN 1978-08-20 09:00:00 TS 12.5836 -126.456 main 2029 2029 P________PP___ EP101978 12.5776 -126.450 TS 60 0 12.5776 -126.450 TC 60 12.6080 -126.478 2 58 8 300
1978230N12239 1978 70 EP MM JOHN 1978-08-20 12:00:00 TS 12.8000 -126.800 60 hurdat_epa main 2037 2037 O________OO___ hurdat_epa EP101978 12.8000 -126.800 TS 60 0 12.8000 -126.800 TC 60 12.8000 -126.800 2 60 7 308
1978230N12239 1978 70 EP MM JOHN 1978-08-20 15:00:00 TS 13.0421 -127.051 main 2046 2038 P________PP___ EP101978 13.0498 -127.035 TS 60 0 13.0498 -127.035 TC 60 13.0113 -127.115 2 60 7 313
1978230N12239 1978 70 EP MM JOHN 1978-08-20 18:00:00 TS 13.2884 -127.330 60 hurdat_epa main 2039 2039 O________OP___ hurdat_epa EP101978 13.3000 -127.300 TS 60 0 13.3000 -127.300 TC 60 13.2421 -127.448 2 60 8 305
1978230N12239 1978 70 EP MM JOHN 1978-08-20 21:00:00 TS 13.5014 -127.737 main 2057 2057 P________PP___ EP101978 13.5076 -127.720 TS 60 0 13.5076 -127.720 TC 60 13.4768 -127.806 2 60 9 296
1978230N12239 1978 70 EP MM JOHN 1978-08-21 00:00:00 TS 13.7000 -128.200 60 hurdat_epa main 2078 2076 O________OO___ hurdat_epa EP101978 13.7000 -128.200 TS 60 0 13.7000 -128.200 TC 60 13.7000 -128.200 2 60 10 295
1978230N12239 1978 70 EP MM JOHN 1978-08-21 03:00:00 TS 13.9013 -128.639 main 2088 2088 P________PP___ EP101978 13.9074 -128.643 TS 60 0 13.9074 -128.643 TC 60 13.8770 -128.623 2 57 10 294
1978230N12239 1978 70 EP MM JOHN 1978-08-21 06:00:00 TS 14.0884 -129.097 60 hurdat_epa main 2107 2107 O________OP___ hurdat_epa EP101978 14.1000 -129.100 TS 60 0 14.1000 -129.100 TC 60 14.0421 -129.083 2 55 10 290
1978230N12239 1978 70 EP MM JOHN 1978-08-21 09:00:00 TS 14.2362 -129.589 main 2135 2127 P________PP___ EP101978 14.2424 -129.593 TS 55 0 14.2424 -129.593 TC 55 14.2112 -129.577 2 52 10 288
1978230N12239 1978 70 EP MM JOHN 1978-08-21 12:00:00 TS 14.4000 -130.100 50 hurdat_epa main 2155 2155 O________OO___ hurdat_epa EP101978 14.4000 -130.100 TS 50 0 14.4000 -130.100 TC 50 14.4000 -130.100 2 50 11 293
1978230N12239 1978 70 EP MM JOHN 1978-08-21 15:00:00 TS 14.6391 -130.590 main 2177 2169 P________PP___ EP101978 14.6347 -130.578 TS 50 0 14.6347 -130.578 TC 50 14.6567 -130.642 2 52 11 297
1978230N12239 1978 70 EP MM JOHN 1978-08-21 18:00:00 TS 14.9059 -131.122 50 hurdat_epa main 2193 2193 O________OP___ hurdat_epa EP101978 14.9000 -131.100 TS 50 0 14.9000 -131.100 TC 50 14.9297 -131.212 2 55 12 295
1978230N12239 1978 70 EP MM JOHN 1978-08-21 21:00:00 TS 15.1636 -131.748 main 2217 2217 P________PP___ EP101978 15.1576 -131.735 TS 55 0 15.1576 -131.735 TC 55 15.1879 -131.801 2 57 13 292
1978230N12239 1978 70 EP MM JOHN 1978-08-22 00:00:00 TS 15.4000 -132.400 60 hurdat_epa main 2259 2259 O________OO___ hurdat_epa EP101978 15.4000 -132.400 TS 60 0 15.4000 -132.400 TC 60 15.4000 -132.400 2 60 13 291
1978230N12239 1978 70 EP MM JOHN 1978-08-22 03:00:00 TS 15.6249 -133.006 main 2294 2282 P________PP___ EP101978 15.6448 -133.007 TS 60 0 15.6448 -133.007 TC 60 15.5454 -133.001 2 62 12 288
1978230N12239 1978 70 EP MM JOHN 1978-08-22 06:00:00 TS 15.7679 -133.602 60 hurdat_epa main 2282 2220 O________OP___ hurdat_epa EP101978 15.8000 -133.600 TS 60 0 15.8000 -133.600 TC 60 15.6397 -133.608 2 65 12 277
1978230N12239 1978 70 EP MM JOHN 1978-08-22 09:00:00 TS 15.7678 -134.214 main 2220 2160 P________PP___ EP101978 15.7874 -134.215 TS 65 1 15.7874 -134.215 TC 65 15.6891 -134.210 2 67 12 267
1978230N12239 1978 70 EP MM JOHN 1978-08-22 12:00:00 TS 15.7000 -134.800 70 hurdat_epa main 2160 2109 O________OO___ hurdat_epa EP101978 15.7000 -134.800 HU 70 1 15.7000 -134.800 TC 70 15.7000 -134.800 4 70 11 264
1978230N12239 1978 70 EP MM JOHN 1978-08-22 15:00:00 TS 15.6560 -135.311 main 2109 2060 P________PP___ EP101978 15.6497 -135.300 HU 67 1 15.6497 -135.300 TC 67 15.6811 -135.357 4 68 10 265
1978230N12239 1978 70 EP MM JOHN 1978-08-22 18:00:00 TS 15.6058 -135.820 65 hurdat_epa main 2060 1998 O________OP___ hurdat_epa EP101978 15.6000 -135.800 HU 65 1 15.6000 -135.800 TC 65 15.6290 -135.901 4 67 11 264
1978230N12239 1978 70 EP MM JOHN 1978-08-22 21:00:00 TS 15.5524 -136.397 main 1998 1939 P________PP___ EP101978 15.5500 -136.385 HU 65 1 15.5500 -136.385 TC 65 15.5624 -136.444 4 66 11 265
1978230N12239 1978 70 EP MM JOHN 1978-08-23 00:00:00 TS 15.5000 -137.000 65 hurdat_epa main 1939 1880 O________OO___ hurdat_epa EP101978 15.5000 -137.000 HU 65 1 15.5000 -137.000 TC 65 15.5000 -137.000 4 65 12 265
1978230N12239 1978 70 EP MM JOHN 1978-08-23 03:00:00 TS 15.4457 -137.597 main 1880 1819 P________PP___ EP101978 15.4423 -137.600 HU 62 0 15.4423 -137.600 TC 62 15.4594 -137.586 4 62 12 265
1978230N12239 1978 70 EP MM JOHN 1978-08-23 06:00:00 TS 15.4054 -138.197 60 hurdat_epa main 1819 1757 O________OP___ hurdat_epa EP101978 15.4000 -138.200 TS 60 0 15.4000 -138.200 TC 60 15.4271 -138.185 4 60 12 267
1978230N12239 1978 70 EP MM JOHN 1978-08-23 09:00:00 TS 15.3892 -138.804 main 1757 1696 P________PP___ EP101978 15.3849 -138.807 TS 57 0 15.3849 -138.807 TC 57 15.4062 -138.792 4 57 12 270
1978230N12239 1978 70 EP MM JOHN 1978-08-23 12:00:00 TS 15.4000 -139.400 55 hurdat_epa main 1696 1645 O________OO___ hurdat_epa EP101978 15.4000 -139.400 TS 55 0 15.4000 -139.400 TC 55 15.4000 -139.400 2 55 11 273
1978230N12239 1978 70 EP MM JOHN 1978-08-23 15:00:00 TS 15.4462 -139.962 main 1635 1580 P________PP___ EP101978 15.4572 -139.950 TS 57 0 15.4572 -139.950 TC 57 15.4022 -140.012 2 57 11 274
1978230N12239 1978 70 EP CP JOHN 1978-08-23 18:00:00 TS 15.4799 -140.533 60 hurdat_epa main 1580 1519 O________OP___ hurdat_epa EP101978 15.5000 -140.500 TS 60 0 15.5000 -140.500 TC 60 15.4197 -140.622 2 60 11 270
1978230N12239 1978 70 EP CP JOHN 1978-08-23 21:00:00 TS 15.4519 -141.126 main 1519 1463 P________PP___ EP101978 15.4498 -141.085 TS 62 0 15.4498 -141.085 TC 62 15.4523 -141.222 2 62 12 268
1978230N12239 1978 70 EP CP JOHN 1978-08-24 00:00:00 TS 15.4304 -141.730 65 hurdat_epa main 1463 1398 O________OO___ hurdat_epa EP101978 15.4000 -141.700 HU 65 1 15.4000 -141.700 TC 65 15.5000 -141.800 4 65 12 270
1978230N12239 1978 70 EP CP JOHN 1978-08-24 03:00:00 TS 15.4607 -142.370 main 1388 1338 P________PP___ EP101978 15.4277 -142.387 HU 67 1 15.4277 -142.387 TC 67 15.5685 -142.371 4 66 12 275
1978230N12239 1978 70 EP CP JOHN 1978-08-24 06:00:00 TS 15.5250 -142.953 70 hurdat_epa main 1328 1294 O________OP___ hurdat_epa EP101978 15.5000 -143.000 HU 70 1 15.5000 -143.000 TC 70 15.6497 -142.917 4 67 10 280
1978230N12239 1978 70 EP CP JOHN 1978-08-24 09:00:00 TS 15.6247 -143.356 main 1284 1250 P________PP___ EP101978 15.5918 -143.335 HU 72 1 15.5918 -143.335 TC 72 15.7311 -143.430 4 68 8 285
1978230N12239 1978 70 EP CP JOHN 1978-08-24 12:00:00 TS 15.7333 -143.767 75 hurdat_epa main 1240 1177 O________OO___ hurdat_epa EP101978 15.7000 -143.700 HU 75 1 15.7000 -143.700 TC 75 15.8000 -143.900 4 70 10 280
1978230N12239 1978 70 EP CP JOHN 1978-08-24 15:00:00 TS 15.8075 -144.401 main 1177 1113 P________PP___ EP101978 15.7860 -144.502 HU 77 1 15.8081 -144.427 TC 77 15.8425 -144.294 4 75 12 277
1978230N12239 1978 70 EP CP JOHN 1978-08-24 18:00:00 TS 15.8785 -145.025 80 hurdat_epa main 1113 1069 O________OP___ hurdat_epa EP101978 15.9000 -145.200 HU 80 1 15.9000 -145.200 TC 80 15.8712 -144.650 4 80 10 281
1978230N12239 1978 70 EP CP JOHN 1978-08-24 21:00:00 TS 15.9904 -145.419 main 1069 1035 P________PP___ EP101978 16.1366 -145.185 HU 85 2 15.9647 -145.760 TC 85 15.8894 -145.006 4 85 7 285
1978230N12239 1978 70 EP CP JOHN 1978-08-25 00:00:00 TS 16.0667 -145.767 90 hurdat_epa main 1025 991 O________OO___ hurdat_epa EP101978 16.3000 -145.200 HU 90 2 16.0000 -146.200 TC 90 15.9000 -145.400 4 90 8 274
1978230N12239 1978 70 EP CP JOHN 1978-08-25 03:00:00 TS 16.0402 -146.232 main 991 942 P________PP___ EP101978 16.1888 -145.983 HU 85 2 16.0147 -146.558 TC 85 15.9280 -145.910 4 88 9 264
1978230N12239 1978 70 EP CP JOHN 1978-08-25 06:00:00 TS 15.9743 -146.726 80 hurdat_epa main 942 900 O________OP___ hurdat_epa EP101978 16.0000 -146.900 HU 80 1 16.0000 -146.900 TC 80 15.9458 -146.457 4 87 9 264
1978230N12239 1978 70 EP CP JOHN 1978-08-25 09:00:00 TS 15.9400 -147.210 main 900 862 P________PP___ EP101978 15.9345 -147.425 HU 75 1 15.9576 -147.350 TC 75 15.9405 -147.001 4 86 9 265
1978230N12239 1978 70 EP CP JOHN 1978-08-25 12:00:00 TS 15.9000 -147.667 70 hurdat_epa main 853 825 O________OO___ hurdat_epa EP101978 15.9000 -147.800 HU 70 1 15.9000 -147.800 TC 70 15.9000 -147.500 4 85 8 264
1978230N12239 1978 70 EP CP JOHN 1978-08-25 15:00:00 TS 15.8570 -148.062 main 816 794 P________PP___ EP101978 15.8723 -148.157 HU 65 1 15.8723 -148.157 TC 65 15.8304 -147.888 4 76 8 260
1978230N12239 1978 70 EP CP JOHN 1978-08-25 18:00:00 TS 15.7707 -148.438 60 hurdat_epa main 794 771 O________OP___ hurdat_epa EP101978 15.8000 -148.500 TS 60 0 15.8000 -148.500 TC 60 15.7239 -148.230 4 67 8 251
1978230N12239 1978 70 EP CP JOHN 1978-08-25 21:00:00 TS 15.6022 -148.839 main 771 750 P________PP___ EP101978 15.6225 -148.900 TS 55 0 15.6225 -148.900 TC 55 15.5805 -148.557 4 58 9 244
1978230N12239 1978 70 EP CP JOHN 1978-08-26 00:00:00 TS 15.4000 -149.233 50 hurdat_epa main 750 732 O________OO___ hurdat_epa EP101978 15.4000 -149.300 TS 50 0 15.4000 -149.300 TC 50 15.4000 -148.900 2 50 8 241
1978230N12239 1978 70 EP CP JOHN 1978-08-26 03:00:00 TS 15.2010 -149.595 main 732 716 P________PP___ EP101978 15.1849 -149.650 TS 50 0 15.1849 -149.650 TC 50 15.1167 -149.296 2 50 8 241
1978230N12239 1978 70 EP CP JOHN 1978-08-26 06:00:00 TS 15.0183 -149.952 50 hurdat_epa main 716 701 O________OP___ hurdat_epa EP101978 15.0000 -150.000 TS 50 0 15.0000 -150.000 TC 50 14.8098 -149.714 2 50 8 244
1978230N12239 1978 70 EP CP JOHN 1978-08-26 09:00:00 TS 14.8617 -150.329 main 701 680 P________PP___ EP101978 14.8699 -150.385 TS 47 0 14.8699 -150.385 TC 47 14.5479 -150.150 2 50 8 252
1978230N12239 1978 70 EP CP JOHN 1978-08-26 12:00:00 TS 14.7667 -150.733 45 hurdat_epa main 680 654 O________OO___ hurdat_epa EP101978 14.8000 -150.800 TS 45 0 14.8000 -150.800 TC 45 14.4000 -150.600 2 50 8 262
1978230N12239 1978 70 EP CP JOHN 1978-08-26 15:00:00 TS 14.7515 -151.177 main 645 619 P________PP___ EP101978 14.7625 -151.250 TS 45 0 14.7625 -151.250 TC 45 14.4890 -151.043 2 47 9 273
1978230N12239 1978 70 EP CP JOHN 1978-08-26 18:00:00 TS 14.8149 -151.634 45 hurdat_epa main 619 577 O________OP___ hurdat_epa EP101978 14.8000 -151.700 TS 45 0 14.8000 -151.700 TC 45 14.6894 -151.503 2 45 9 284
1978230N12239 1978 70 EP CP JOHN 1978-08-26 21:00:00 TS 14.9665 -152.056 main 571 539 P________PP___ EP101978 14.9573 -152.092 TS 42 0 14.9573 -152.092 TC 42 14.9201 -151.987 2 42 9 289
1978230N12239 1978 70 EP CP JOHN 1978-08-27 00:00:00 TS 15.1000 -152.500 40 hurdat_epa main 539 513 O________OO___ hurdat_epa EP101978 15.1000 -152.500 TS 40 0 15.1000 -152.500 TC 40 15.1000 -152.500 2 40 9 277
1978230N12239 1978 70 EP CP JOHN 1978-08-27 03:00:00 TS 15.0863 -153.015 main 513 495 P________PP___ EP101978 15.0800 -152.985 TS 40 0 15.0800 -152.985 TC 40 15.0904 -153.056 2 38 10 266
1978230N12239 1978 70 EP CP JOHN 1978-08-27 06:00:00 TS 15.0204 -153.556 40 hurdat_epa main 490 472 O________OP___ hurdat_epa EP101978 15.0000 -153.500 TS 40 0 15.0000 -153.500 TC 40 15.0226 -153.637 2 37 10 263
1978230N12239 1978 70 EP CP JOHN 1978-08-27 09:00:00 TS 14.9634 -154.032 main 472 462 P________PP___ EP101978 14.9342 -153.925 TS 37 0 14.9342 -153.925 TC 37 14.9434 -154.224 2 36 10 265
1978230N12239 1978 70 EP CP JOHN 1978-08-27 12:00:00 TS 14.9333 -154.600 35 hurdat_epa main 462 437 O________OO___ hurdat_epa EP101978 14.9000 -154.500 TS 35 0 14.9000 -154.500 TC 35 14.9000 -154.800 2 35 14 270
1978230N12239 1978 70 EP CP JOHN 1978-08-27 15:00:00 TS 14.9585 -155.474 main 436 436 P________PP___ EP101978 14.9216 -155.560 TS 35 0 14.9216 -155.560 TC 35 14.9801 -155.302 2 35 16 274
1978230N12239 1978 70 EP CP JOHN 1978-08-27 18:00:00 TS 15.0330 -156.266 35 hurdat_epa main 441 424 O________OP___ hurdat_epa EP101978 15.0000 -156.500 TS 35 0 15.0000 -156.500 TC 35 15.0982 -155.796 2 35 11 281
1978230N12239 1978 70 EP CP JOHN 1978-08-27 21:00:00 TS 15.1640 -156.571 main 424 416 P________PP___ EP101978 15.1416 -156.690 TS 35 0 15.1416 -156.690 TC 35 15.2174 -156.318 2 35 6 299
1978230N12239 1978 70 EP CP JOHN 1978-08-28 00:00:00 TS 15.3000 -156.767 35 hurdat_epa main 419 415 O________OO___ hurdat_epa EP101978 15.3000 -156.700 TS 35 0 15.3000 -156.700 TC 35 15.3000 -156.900 2 35 7 290
1978230N12239 1978 70 EP CP JOHN 1978-08-28 03:00:00 TS 15.3909 -157.217 main 422 422 P________PP___ EP101978 15.4301 -157.055 TS 35 0 15.4301 -157.055 TC 35 15.2949 -157.667 2 35 9 278
1978230N12239 1978 70 EP CP JOHN 1978-08-28 06:00:00 TS 15.4246 -157.731 35 hurdat_epa main 445 445 O________OP___ hurdat_epa EP101978 15.5000 -157.500 TS 35 0 15.5000 -157.500 TC 35 15.2475 -158.483 2 35 10 270
1978230N12239 1978 70 EP CP JOHN 1978-08-28 09:00:00 TS 15.3951 -158.208 main 473 473 P________PP___ EP101978 15.4950 -157.908 TS 35 0 15.4950 -157.908 TC 35 15.1761 -159.258 2 35 9 262
1978230N12239 1978 70 EP CP JOHN 1978-08-28 12:00:00 TS 15.3000 -158.650 35 hurdat_epa main 513 513 O________OO___ hurdat_epa EP101978 15.4000 -158.300 TS 35 0 15.4000 -158.300 TC 35 15.1000 -159.900 2 35 8 252
1978230N12239 1978 70 EP CP JOHN 1978-08-28 15:00:00 TS 15.1430 -159.016 main 551 551 P________PP___ EP101978 15.2074 -158.658 TS 35 0 15.2074 -158.658 TC 35 15.0439 -160.241 2 33 8 245
1978230N12239 1978 70 EP CP JOHN 1978-08-28 18:00:00 TS 14.9816 -159.359 35 hurdat_epa main 587 587 O________OP___ hurdat_epa EP101978 15.0000 -159.000 TS 35 0 15.0000 -159.000 TC 35 14.9898 -160.452 2 32 7 247
1978230N12239 1978 70 EP CP JOHN 1978-08-28 21:00:00 TS 14.8789 -159.667 main 617 617 P________PP___ EP101978 14.8619 -159.268 TS 35 0 14.8619 -159.268 TC 35 14.9410 -160.638 2 31 7 258
1978230N12239 1978 70 EP CP JOHN 1978-08-29 00:00:00 TS 14.8333 -160.100 35 hurdat_epa main 655 655 O________OO___ hurdat_epa EP101978 14.8000 -159.700 TS 35 0 14.8000 -159.700 TC 35 14.9000 -160.900 1 30 11 269
1978230N12239 1978 70 EP CP JOHN 1978-08-29 03:00:00 TS 14.8565 -160.817 main 701 701 P________PP___ EP101978 14.8432 -160.540 TS 35 0 14.8432 -160.540 TC 35 14.8595 -161.349 1 30 15 272
1978230N12239 1978 70 EP CP JOHN 1978-08-29 06:00:00 TS 14.8878 -161.632 35 hurdat_epa main 766 766 O________OP___ hurdat_epa EP101978 14.9000 -161.500 TS 35 0 14.9000 -161.500 TC 35 14.8271 -161.893 1 30 15 270
1978230N12239 1978 70 EP CP JOHN 1978-08-29 09:00:00 TS 14.8673 -162.348 main 827 827 P________PP___ EP101978 14.8869 -162.265 TS 35 0 14.8869 -162.265 TC 35 14.8061 -162.515 1 30 14 266
1978230N12239 1978 70 EP CP JOHN 1978-08-29 12:00:00 TS 14.8000 -163.067 35 hurdat_epa main 877 877 O________OO___ hurdat_epa EP101978 14.8000 -163.000 TS 35 0 14.8000 -163.000 TC 35 14.8000 -163.200 1 30 15 261
1978230N12239 1978 70 EP CP JOHN 1978-08-29 15:00:00 TS 14.6422 -163.839 main 929 929 P________PP___ EP101978 14.5623 -163.793 TS 35 0 14.5623 -163.793 TC 35 14.8192 -163.933 1 30 15 260
1978230N12239 1978 70 EP CP JOHN 1978-08-29 18:00:00 TS 14.5418 -164.637 35 hurdat_epa main 980 980 O________OP___ hurdat_epa EP101978 14.4000 -164.600 TS 35 0 14.4000 -164.600 TC 35 14.8506 -164.720 1 30 16 271
1978230N12239 1978 70 EP CP JOHN 1978-08-29 21:00:00 TS 14.6747 -165.442 main 1007 1007 P________PP___ EP101978 14.5773 -165.407 TS 32 -1 14.5773 -165.407 TC 32 14.8816 -165.521 1 30 16 281
1978230N12239 1978 70 EP CP JOHN 1978-08-30 00:00:00 TS 14.8400 -166.240 30 hurdat_epa main 1050 1050 O________OO___ hurdat_epa EP101978 14.8000 -166.200 TD 30 -1 14.8000 -166.200 TC 30 14.9000 -166.300 1 30 15 276
1978230N12239 1978 70 EP CP JOHN 1978-08-30 03:00:00 TS 14.8345 -166.993 main 1106 1106 P________PP___ EP101978 14.7723 -166.973 TD 27 -1 14.8204 -166.961 TC 27 14.8401 -167.029 1 28 14 267
1978230N12239 1978 70 EP CP JOHN 1978-08-30 06:00:00 TS 14.7581 -167.709 25 hurdat_epa main 1158 1158 O________OP___ hurdat_epa EP101978 14.7000 -167.700 TD 25 -1 14.7000 -167.700 TC 25 14.7744 -167.727 1 27 13 267
1978230N12239 1978 70 EP CP JOHN 1978-08-30 09:00:00 NR 14.7694 -168.375 main 1212 1212 P_________P___ EP101978 14.7422 -168.372 TD 25 -1 TC 14.7465 -168.386 1 26 13 272
1978230N12239 1978 70 EP CP JOHN 1978-08-30 12:00:00 NR 14.8000 -169.000 25 cphc main 1260 1260 O_________O___ cphc 14.8000 -169.000 25 14.8000 -169.000 1 25 12 276
1978230N12239 1978 70 EP CP JOHN 1978-08-30 15:00:00 NR 14.8905 -169.599 main 1302 1302 P_________P___ 14.8224 -169.630 25 14.9660 -169.567 1 25 11 281
1978230N12239 1978 70 EP CP JOHN 1978-08-30 18:00:00 NR 15.0128 -170.149 25 cphc main 1338 1338 O_________P___ cphc 14.8000 -170.200 25 15.2257 -170.098 1 25 10 284
1978230N12239 1978 70 EP CP JOHN 1978-08-30 21:00:00 NR 15.1338 -170.641 main 1374 1374 P_________P___ 14.7176 -170.678 25 15.5476 -170.604 1 25 9 284
1978230N12239 1978 70 EP CP JOHN 1978-08-31 00:00:00 NR 15.2500 -171.100 25 cphc main 1405 O_________O___ cphc 14.6000 -171.100 25 15.9000 -171.100 1 25 9 285

IBTrACS Databaseについて

本データベースは、米国NOAAが公開する1842年以降の世界の熱帯低気圧のベストトラックデータアーカイブInternational Best Track Archive for Climate Stewardship (IBTrACS)を、ウェブで閲覧しやすい形式に変換したものです。

最終更新日:2021-10-25